createdAt,value
2019-04-27T00:01:15.377Z,78.40
2019-04-27T00:04:04.083Z,78.30
2019-04-27T00:06:38.204Z,78.50
2019-04-27T00:09:11.664Z,78.30
2019-04-27T00:11:46.500Z,78.20
2019-04-27T00:14:18.108Z,78.00
2019-04-27T00:16:58.618Z,77.90
2019-04-27T00:19:46.424Z,78.10
2019-04-27T00:22:23.803Z,78.20
2019-04-27T00:24:54.051Z,78.10
2019-04-27T00:27:23.838Z,78.20
2019-04-27T00:29:53.741Z,78.30
2019-04-27T00:32:24.506Z,78.30
2019-04-27T00:34:54.322Z,78.40
2019-04-27T00:37:44.802Z,78.30
2019-04-27T00:40:16.328Z,78.40
2019-04-27T00:42:46.129Z,78.50
2019-04-27T00:45:16.274Z,78.40
2019-04-27T00:47:56.543Z,78.40
2019-04-27T00:50:18.637Z,78.60
2019-04-27T00:52:48.505Z,78.60
2019-04-27T00:55:18.627Z,78.70
2019-04-27T00:58:08.010Z,78.60
2019-04-27T01:00:45.451Z,78.60
2019-04-27T01:03:19.646Z,78.50
2019-04-27T01:05:49.580Z,78.30
2019-04-27T01:08:19.525Z,78.30
2019-04-27T01:10:50.752Z,78.40
2019-04-27T01:13:20.582Z,78.30
2019-04-27T01:15:51.058Z,78.50
2019-04-27T01:18:20.957Z,78.50
2019-04-27T01:20:50.804Z,78.40
2019-04-27T01:23:20.594Z,78.40
2019-04-27T01:25:59.709Z,78.50
2019-04-27T01:28:34.042Z,78.40
2019-04-27T01:31:06.321Z,78.30
2019-04-27T01:33:36.105Z,78.40
2019-04-27T01:36:05.887Z,78.30
2019-04-27T01:38:35.728Z,78.30
2019-04-27T01:41:05.557Z,78.20
2019-04-27T01:43:35.526Z,79.00
2019-04-27T01:46:05.406Z,78.50
2019-04-27T01:48:35.234Z,78.50
2019-04-27T01:51:05.273Z,78.40
2019-04-27T01:53:35.089Z,78.50
2019-04-27T01:56:05.013Z,78.40
2019-04-27T01:58:34.902Z,78.50
2019-04-27T02:01:12.270Z,78.70
2019-04-27T02:03:43.797Z,78.80
2019-04-27T02:06:15.332Z,78.40
2019-04-27T02:08:45.190Z,78.40
2019-04-27T02:11:15.034Z,78.60
2019-04-27T02:13:44.894Z,78.60
2019-04-27T02:16:14.701Z,78.60
2019-04-27T02:18:44.495Z,78.60
2019-04-27T02:21:14.275Z,78.70
2019-04-27T02:23:44.226Z,78.70
2019-04-27T02:26:14.117Z,78.70
2019-04-27T02:28:49.548Z,78.70
2019-04-27T02:31:40.210Z,78.60
2019-04-27T02:34:13.835Z,78.60
2019-04-27T02:36:44.400Z,78.60
2019-04-27T02:39:14.220Z,78.80
2019-04-27T02:41:44.046Z,78.70
2019-04-27T02:44:19.956Z,78.90
2019-04-27T02:46:50.393Z,78.90
2019-04-27T02:49:20.389Z,78.60
2019-04-27T02:51:54.604Z,78.40
2019-04-27T02:54:24.515Z,78.50
2019-04-27T02:56:54.360Z,78.30
2019-04-27T02:59:24.141Z,78.30
2019-04-27T03:02:01.395Z,78.20
2019-04-27T03:04:31.181Z,77.80
2019-04-27T03:07:01.048Z,78.20
2019-04-27T03:09:31.101Z,78.20
2019-04-27T03:12:02.881Z,78.40
2019-04-27T03:14:36.424Z,78.30
2019-04-27T03:17:25.346Z,78.40
2019-04-27T03:20:11.867Z,78.50
2019-04-27T03:22:49.824Z,78.70
2019-04-27T03:25:21.598Z,78.70
2019-04-27T03:27:54.301Z,78.60
2019-04-27T03:30:24.819Z,78.70
2019-04-27T03:32:56.525Z,78.50
2019-04-27T03:35:26.227Z,78.40
2019-04-27T03:37:56.091Z,78.30
2019-04-27T03:40:26.083Z,78.50
2019-04-27T03:42:59.558Z,78.50
2019-04-27T03:45:30.179Z,78.50
2019-04-27T03:48:00.585Z,78.50
2019-04-27T03:50:34.887Z,78.40
2019-04-27T03:53:24.966Z,78.50
2019-04-27T03:56:10.155Z,78.50
2019-04-27T03:58:41.586Z,78.30
2019-04-27T04:01:11.410Z,78.40
2019-04-27T04:03:41.250Z,78.40
2019-04-27T04:06:11.153Z,78.40
2019-04-27T04:08:41.910Z,78.40
2019-04-27T04:11:14.078Z,78.40
2019-04-27T04:13:55.002Z,78.40
2019-04-27T04:16:26.572Z,78.50
2019-04-27T04:19:01.148Z,78.20
2019-04-27T04:21:32.853Z,78.30
2019-04-27T04:24:02.631Z,78.30
2019-04-27T04:26:33.190Z,78.20
2019-04-27T04:29:03.130Z,78.40
2019-04-27T04:31:33.498Z,78.30
2019-04-27T04:34:03.585Z,78.20
2019-04-27T04:36:33.377Z,78.30
2019-04-27T04:39:04.764Z,78.30
2019-04-27T04:41:52.667Z,78.30
2019-04-27T04:44:30.373Z,78.50
2019-04-27T04:47:02.603Z,78.60
2019-04-27T04:49:32.488Z,78.60
2019-04-27T04:52:02.408Z,78.60
2019-04-27T04:54:32.294Z,78.80
2019-04-27T04:57:02.111Z,78.50
2019-04-27T04:59:32.041Z,78.40
2019-04-27T05:02:02.704Z,78.40
2019-04-27T05:04:32.629Z,78.50
2019-04-27T05:07:04.191Z,78.60
2019-04-27T05:09:34.837Z,78.60
2019-04-27T05:12:04.617Z,78.20
2019-04-27T05:14:34.414Z,77.60
2019-04-27T05:17:04.333Z,77.60
2019-04-27T05:19:34.162Z,78.00
2019-04-27T05:22:04.074Z,77.70
2019-04-27T05:24:33.909Z,77.70
2019-04-27T05:27:03.882Z,77.60
2019-04-27T05:29:33.850Z,77.40
2019-04-27T05:32:03.638Z,77.20
2019-04-27T05:34:33.470Z,77.20
2019-04-27T05:37:03.284Z,77.20
2019-04-27T05:39:33.193Z,77.30
2019-04-27T05:42:03.031Z,77.10
2019-04-27T05:45:10.971Z,76.70
2019-04-27T05:47:48.457Z,76.30
2019-04-27T05:50:21.691Z,76.10
2019-04-27T05:52:49.689Z,76.20
2019-04-27T05:55:19.724Z,75.80
2019-04-27T05:57:49.537Z,76.00
2019-04-27T06:00:20.994Z,75.90
2019-04-27T06:02:50.893Z,75.60
2019-04-27T06:05:22.712Z,75.00
2019-04-27T06:07:52.293Z,74.90
2019-04-27T06:10:22.138Z,74.60
2019-04-27T06:12:51.963Z,74.90
2019-04-27T06:15:21.782Z,74.90
2019-04-27T06:17:51.694Z,74.90
2019-04-27T06:20:21.470Z,74.80
2019-04-27T06:22:51.242Z,74.60
2019-04-27T06:25:21.937Z,73.90
2019-04-27T06:27:51.890Z,73.50
2019-04-27T06:30:21.934Z,73.30
2019-04-27T06:32:51.745Z,73.50
2019-04-27T06:35:21.532Z,73.80
2019-04-27T06:37:51.352Z,73.20
2019-04-27T06:40:21.410Z,73.30
2019-04-27T06:42:51.222Z,73.20
2019-04-27T06:45:21.054Z,73.40
2019-04-27T06:47:51.266Z,73.40
2019-04-27T06:50:22.409Z,72.90
2019-04-27T06:52:52.277Z,72.50
2019-04-27T06:55:22.237Z,72.60
2019-04-27T06:57:52.194Z,72.20
2019-04-27T07:00:22.108Z,72.10
2019-04-27T07:02:51.893Z,72.10
2019-04-27T07:05:21.745Z,71.50
2019-04-27T07:07:51.642Z,72.00
2019-04-27T07:10:21.473Z,72.00
2019-04-27T07:12:52.054Z,72.00
2019-04-27T07:15:21.862Z,72.30
2019-04-27T07:17:52.462Z,72.00
2019-04-27T07:20:22.277Z,72.10
2019-04-27T07:22:52.052Z,72.20
2019-04-27T07:25:21.860Z,71.40
2019-04-27T07:27:52.553Z,71.10
2019-04-27T07:30:22.401Z,71.20
2019-04-27T07:32:52.240Z,71.40
2019-04-27T07:35:22.087Z,71.00
2019-04-27T07:37:52.821Z,71.20
2019-04-27T07:40:22.622Z,71.10
2019-04-27T07:42:54.103Z,70.70
2019-04-27T07:45:31.324Z,70.30
2019-04-27T07:48:01.137Z,70.10
2019-04-27T07:50:31.290Z,70.10
2019-04-27T07:53:01.113Z,70.10
2019-04-27T07:55:30.901Z,70.00
2019-04-27T07:58:00.670Z,69.70
2019-04-27T08:00:30.827Z,69.70
2019-04-27T08:03:00.765Z,69.00
2019-04-27T08:05:30.549Z,68.90
2019-04-27T08:08:00.433Z,68.80
2019-04-27T08:10:31.181Z,68.20
2019-04-27T08:13:01.236Z,68.30
2019-04-27T08:15:32.082Z,67.90
2019-04-27T08:18:01.983Z,67.80
2019-04-27T08:20:31.964Z,67.10
2019-04-27T08:23:01.926Z,67.00
2019-04-27T08:25:31.748Z,66.10
2019-04-27T08:28:03.157Z,65.60
2019-04-27T08:30:39.260Z,64.40
2019-04-27T08:33:10.489Z,64.90
2019-04-27T08:35:40.703Z,65.10
2019-04-27T08:38:10.602Z,64.80
2019-04-27T08:40:40.552Z,65.40
2019-04-27T08:43:11.408Z,64.80
2019-04-27T08:45:41.853Z,64.10
2019-04-27T08:48:11.634Z,63.90
2019-04-27T08:50:42.243Z,62.70
2019-04-27T08:53:12.086Z,61.80
2019-04-27T08:55:41.853Z,61.30
2019-04-27T08:58:11.673Z,60.50
2019-04-27T09:00:41.569Z,59.20
2019-04-27T09:03:11.362Z,58.30
2019-04-27T09:05:41.133Z,58.20
2019-04-27T09:08:25.152Z,58.50
2019-04-27T09:11:02.391Z,58.40
2019-04-27T09:13:34.094Z,58.80
2019-04-27T09:16:05.541Z,58.50
2019-04-27T09:18:35.367Z,57.90
2019-04-27T09:21:05.146Z,57.40
2019-04-27T09:23:34.928Z,56.30
2019-04-27T09:26:04.806Z,55.30
2019-04-27T09:28:34.716Z,54.20
2019-04-27T09:31:05.045Z,54.00
2019-04-27T09:33:35.533Z,53.50
2019-04-27T09:36:06.102Z,53.80
2019-04-27T09:38:36.024Z,53.60
2019-04-27T09:41:07.153Z,53.00
2019-04-27T09:43:37.848Z,52.30
2019-04-27T09:46:07.914Z,50.50
2019-04-27T09:48:37.692Z,50.50
2019-04-27T09:51:07.462Z,49.20
2019-04-27T09:53:37.962Z,48.10
2019-04-27T09:56:07.801Z,46.90
2019-04-27T09:58:37.641Z,46.20
2019-04-27T10:01:07.437Z,45.80
2019-04-27T10:03:37.325Z,44.20
2019-04-27T10:06:07.088Z,43.90
2019-04-27T10:08:37.042Z,43.60
2019-04-27T10:11:06.866Z,43.80
2019-04-27T10:13:36.766Z,43.90
2019-04-27T10:16:06.551Z,44.10
2019-04-27T10:18:36.818Z,45.00
2019-04-27T10:21:06.630Z,45.60
2019-04-27T10:23:38.392Z,45.50
2019-04-27T10:26:07.937Z,45.10
2019-04-27T10:28:37.720Z,45.00
2019-04-27T10:31:07.546Z,45.50
2019-04-27T10:33:37.322Z,46.30
2019-04-27T10:36:07.266Z,46.20
2019-04-27T10:38:37.758Z,47.00
2019-04-27T10:41:07.786Z,47.10
2019-04-27T10:43:38.717Z,46.80
2019-04-27T10:46:08.498Z,45.50
2019-04-27T10:48:38.256Z,45.50
2019-04-27T10:51:08.261Z,43.30
2019-04-27T10:53:39.003Z,43.60
2019-04-27T10:56:09.114Z,43.70
2019-04-27T10:58:38.935Z,44.30
2019-04-27T11:01:09.469Z,43.60
2019-04-27T11:03:58.012Z,44.10
2019-04-27T11:06:30.287Z,42.50
2019-04-27T11:09:00.201Z,42.80
2019-04-27T11:11:30.085Z,43.30
2019-04-27T11:14:01.085Z,43.00
2019-04-27T11:16:32.216Z,43.10
2019-04-27T11:19:02.142Z,42.30
2019-04-27T11:21:33.034Z,40.40
2019-04-27T11:24:02.890Z,39.10
2019-04-27T11:26:32.726Z,39.20
2019-04-27T11:29:02.552Z,39.20
2019-04-27T11:31:32.378Z,39.90
2019-04-27T11:34:02.329Z,40.20
2019-04-27T11:36:35.536Z,39.80
2019-04-27T11:39:11.169Z,40.50
2019-04-27T11:41:40.990Z,41.80
2019-04-27T11:44:10.902Z,44.90
2019-04-27T11:46:40.712Z,45.30
2019-04-27T11:49:10.533Z,46.20
2019-04-27T11:51:40.333Z,48.80
2019-04-27T11:54:11.137Z,50.40
2019-04-27T11:56:40.998Z,50.30
2019-04-27T11:59:10.805Z,50.30
2019-04-27T12:01:40.726Z,49.70
2019-04-27T12:04:11.469Z,49.90
2019-04-27T12:06:41.246Z,49.30
2019-04-27T12:09:11.141Z,49.60
2019-04-27T12:11:41.229Z,48.30
2019-04-27T12:14:10.997Z,46.90
2019-04-27T12:16:40.898Z,45.30
2019-04-27T12:19:10.790Z,44.80
2019-04-27T12:21:40.564Z,44.00
2019-04-27T12:24:10.362Z,43.10
2019-04-27T12:26:47.697Z,43.30
2019-04-27T12:29:19.826Z,44.10
2019-04-27T12:31:49.659Z,44.40
2019-04-27T12:34:20.460Z,45.00
2019-04-27T12:36:53.160Z,44.60
2019-04-27T12:39:22.086Z,45.00
2019-04-27T12:41:51.877Z,45.00
2019-04-27T12:44:21.723Z,45.40
2019-04-27T12:46:51.628Z,45.20
2019-04-27T12:49:21.458Z,44.50
2019-04-27T12:51:51.234Z,44.90
2019-04-27T12:54:31.577Z,45.00
2019-04-27T12:57:06.018Z,44.60
2019-04-27T12:59:56.650Z,44.80
2019-04-27T13:02:29.218Z,44.70
2019-04-27T13:04:59.026Z,44.10
2019-04-27T13:07:29.029Z,43.90
2019-04-27T13:09:58.841Z,44.20
2019-04-27T13:12:28.747Z,43.70
2019-04-27T13:14:58.525Z,43.70
2019-04-27T13:17:28.374Z,44.20
2019-04-27T13:19:58.265Z,44.80
2019-04-27T13:22:28.057Z,45.40
2019-04-27T13:24:57.861Z,45.30
2019-04-27T13:27:27.635Z,45.60
2019-04-27T13:29:58.173Z,45.40
2019-04-27T13:32:27.946Z,45.80
2019-04-27T13:34:57.830Z,46.40
2019-04-27T13:37:41.145Z,46.50
2019-04-27T13:40:13.339Z,46.20
2019-04-27T13:43:00.868Z,46.10
2019-04-27T13:45:51.222Z,46.30
2019-04-27T13:48:28.529Z,47.30
2019-04-27T13:51:16.651Z,46.80
2019-04-27T13:53:46.863Z,46.80
2019-04-27T13:56:17.431Z,46.70
2019-04-27T13:58:47.425Z,46.70
2019-04-27T14:01:17.240Z,46.60
2019-04-27T14:03:47.062Z,47.00
2019-04-27T14:06:16.869Z,48.20
2019-04-27T14:08:46.677Z,49.60
2019-04-27T14:11:18.080Z,51.60
2019-04-27T14:13:48.479Z,53.30
2019-04-27T14:16:18.938Z,53.60
2019-04-27T14:18:49.558Z,54.50
2019-04-27T14:21:19.390Z,55.00
2019-04-27T14:23:49.161Z,55.80
2019-04-27T14:26:18.928Z,56.70
2019-04-27T14:28:50.000Z,58.50
2019-04-27T14:31:20.210Z,58.80
2019-04-27T14:33:51.729Z,59.10
2019-04-27T14:36:21.701Z,59.50
2019-04-27T14:38:51.465Z,59.90
2019-04-27T14:41:21.289Z,60.50
2019-04-27T14:44:05.195Z,60.90
2019-04-27T14:46:22.718Z,61.10
2019-04-27T14:48:52.497Z,60.60
2019-04-27T14:51:22.279Z,61.60
2019-04-27T14:53:52.178Z,61.60
2019-04-27T14:56:24.792Z,62.80
2019-04-27T14:58:53.941Z,62.30
2019-04-27T15:01:24.133Z,61.60
2019-04-27T15:03:54.152Z,63.10
2019-04-27T15:06:25.515Z,63.30
2019-04-27T15:08:56.160Z,61.60
2019-04-27T15:11:26.293Z,60.80
2019-04-27T15:13:59.272Z,62.70
2019-04-27T15:16:27.633Z,62.70
2019-04-27T15:19:00.010Z,63.50
2019-04-27T15:21:32.684Z,62.60
2019-04-27T15:24:09.324Z,63.50
2019-04-27T15:26:34.013Z,64.10
2019-04-27T15:29:05.630Z,64.00
2019-04-27T15:31:39.033Z,63.30
2019-04-27T15:34:29.175Z,63.40
2019-04-27T15:37:01.525Z,62.70
2019-04-27T15:39:50.521Z,62.00
2019-04-27T15:42:22.158Z,61.90
2019-04-27T15:44:51.992Z,62.40
2019-04-27T15:47:22.129Z,62.30
2019-04-27T15:49:54.559Z,62.60
2019-04-27T15:52:25.631Z,63.00
2019-04-27T15:54:54.990Z,63.40
2019-04-27T15:57:24.843Z,63.20
2019-04-27T15:59:54.704Z,63.80
2019-04-27T16:02:24.550Z,63.80
2019-04-27T16:04:54.333Z,64.20
2019-04-27T16:07:26.080Z,65.10
2019-04-27T16:09:59.139Z,65.50
2019-04-27T16:12:28.422Z,65.00
2019-04-27T16:14:59.369Z,65.60
2019-04-27T16:17:31.929Z,66.10
2019-04-27T16:20:00.689Z,65.90
2019-04-27T16:22:30.583Z,66.30
2019-04-27T16:25:00.353Z,66.40
2019-04-27T16:27:31.413Z,66.00
2019-04-27T16:30:09.643Z,65.60
2019-04-27T16:32:33.170Z,65.80
2019-04-27T16:35:03.203Z,66.20
2019-04-27T16:37:35.326Z,66.40
2019-04-27T16:40:08.406Z,66.40
2019-04-27T16:42:38.713Z,65.90
2019-04-27T16:45:09.849Z,66.50
2019-04-27T16:47:39.640Z,66.50
2019-04-27T16:50:10.435Z,66.20
2019-04-27T16:52:40.200Z,66.80
2019-04-27T16:55:10.005Z,67.30
2019-04-27T16:57:40.127Z,67.70
2019-04-27T17:00:12.990Z,67.40
2019-04-27T17:02:42.818Z,67.70
2019-04-27T17:05:12.844Z,68.30
2019-04-27T17:07:42.822Z,68.50
2019-04-27T17:10:16.307Z,68.60
2019-04-27T17:12:46.052Z,69.10
2019-04-27T17:15:33.945Z,69.10
2019-04-27T17:18:20.003Z,68.70
2019-04-27T17:20:52.618Z,69.30
2019-04-27T17:23:31.376Z,69.80
2019-04-27T17:26:06.247Z,69.00
2019-04-27T17:28:37.465Z,68.80
2019-04-27T17:31:12.599Z,68.50
2019-04-27T17:33:44.567Z,68.80
2019-04-27T17:36:16.307Z,68.90
2019-04-27T17:38:47.292Z,69.40
2019-04-27T17:41:16.145Z,68.80
2019-04-27T17:43:45.945Z,69.80
2019-04-27T17:46:15.730Z,69.00
2019-04-27T17:48:45.760Z,66.60
2019-04-27T17:51:15.598Z,66.20
2019-04-27T17:53:45.364Z,66.60
2019-04-27T17:56:15.190Z,66.90
2019-04-27T17:58:45.086Z,67.20
2019-04-27T18:01:20.958Z,67.60
2019-04-27T18:03:46.329Z,67.80
2019-04-27T18:06:16.102Z,67.90
2019-04-27T18:08:48.538Z,68.30
2019-04-27T18:11:21.449Z,69.30
2019-04-27T18:13:50.307Z,69.10
2019-04-27T18:16:23.688Z,69.10
2019-04-27T18:19:00.048Z,69.70
2019-04-27T18:21:28.288Z,69.90
2019-04-27T18:24:05.858Z,70.90
2019-04-27T18:27:00.787Z,71.00
2019-04-27T18:29:29.375Z,70.90
2019-04-27T18:31:55.555Z,71.10
2019-04-27T18:34:25.364Z,70.80
2019-04-27T18:36:55.256Z,71.10
2019-04-27T18:39:25.218Z,71.20
2019-04-27T18:41:54.989Z,71.20
2019-04-27T18:44:30.521Z,71.10
2019-04-27T18:46:59.963Z,71.00
2019-04-27T18:49:31.294Z,71.40
2019-04-27T18:52:06.577Z,71.30
2019-04-27T18:54:38.166Z,71.00
2019-04-27T18:57:10.721Z,71.80
2019-04-27T18:59:39.884Z,71.90
2019-04-27T19:02:09.697Z,71.60
2019-04-27T19:04:39.460Z,71.70
2019-04-27T19:07:09.308Z,72.00
2019-04-27T19:09:39.221Z,72.50
2019-04-27T19:12:09.044Z,73.10
2019-04-27T19:14:38.853Z,72.50
2019-04-27T19:17:08.629Z,72.40
2019-04-27T19:19:38.411Z,72.10
2019-04-27T19:22:08.979Z,71.80
2019-04-27T19:24:38.972Z,72.60
2019-04-27T19:27:18.275Z,72.90
2019-04-27T19:29:48.394Z,73.10
2019-04-27T19:32:18.083Z,73.00
2019-04-27T19:34:48.056Z,73.50
2019-04-27T19:37:18.821Z,73.90
2019-04-27T19:39:49.845Z,73.90
2019-04-27T19:42:20.634Z,73.90
2019-04-27T19:44:50.521Z,74.20
2019-04-27T19:47:20.294Z,74.20
2019-04-27T19:49:50.105Z,74.60
2019-04-27T19:52:22.558Z,75.00
2019-04-27T19:54:51.463Z,74.50
2019-04-27T19:57:31.773Z,74.60
2019-04-27T19:59:54.538Z,74.20
2019-04-27T20:02:24.356Z,74.50
2019-04-27T20:04:55.990Z,74.70
2019-04-27T20:07:25.779Z,74.30
2019-04-27T20:09:59.640Z,74.20
2019-04-27T20:12:31.167Z,74.00
2019-04-27T20:15:02.275Z,74.40
2019-04-27T20:17:34.224Z,74.30
2019-04-27T20:20:04.631Z,74.00
2019-04-27T20:22:34.550Z,74.20
2019-04-27T20:25:05.453Z,74.30
2019-04-27T20:27:45.996Z,74.30
2019-04-27T20:30:08.574Z,74.50
2019-04-27T20:32:38.521Z,74.30
2019-04-27T20:35:08.576Z,74.30
2019-04-27T20:37:38.397Z,74.40
2019-04-27T20:40:09.258Z,74.30
2019-04-27T20:42:39.078Z,74.60
2019-04-27T20:45:08.836Z,74.60
2019-04-27T20:47:38.865Z,74.60
2019-04-27T20:50:08.637Z,74.70
2019-04-27T20:52:42.259Z,75.40
2019-04-27T20:55:13.454Z,75.20
2019-04-27T20:57:43.449Z,75.30
2019-04-27T21:00:15.929Z,75.10
2019-04-27T21:03:01.858Z,75.10
2019-04-27T21:05:41.082Z,75.10
2019-04-27T21:08:12.796Z,75.30
2019-04-27T21:10:42.744Z,75.80
2019-04-27T21:13:12.639Z,75.40
2019-04-27T21:15:42.455Z,75.00
2019-04-27T21:18:12.281Z,75.10
2019-04-27T21:20:42.055Z,75.50
2019-04-27T21:23:12.174Z,75.20
2019-04-27T21:25:42.312Z,75.00
2019-04-27T21:28:18.566Z,75.00
2019-04-27T21:30:43.658Z,75.20
2019-04-27T21:33:13.420Z,75.30
2019-04-27T21:35:44.890Z,75.30
2019-04-27T21:38:14.715Z,75.30
2019-04-27T21:40:44.510Z,75.50
2019-04-27T21:43:16.057Z,75.90
2019-04-27T21:45:45.955Z,75.90
2019-04-27T21:48:15.786Z,75.90
2019-04-27T21:50:45.851Z,76.30
2019-04-27T21:53:31.292Z,76.40
2019-04-27T21:56:02.693Z,76.40
2019-04-27T21:58:33.332Z,76.30
2019-04-27T22:01:14.745Z,76.40
2019-04-27T22:03:46.267Z,76.50
2019-04-27T22:06:16.084Z,76.50
2019-04-27T22:08:45.922Z,76.40
2019-04-27T22:11:15.753Z,76.20
2019-04-27T22:13:45.603Z,76.70
2019-04-27T22:16:15.437Z,76.40
2019-04-27T22:18:45.225Z,76.60
2019-04-27T22:21:15.161Z,76.90
2019-04-27T22:23:52.723Z,76.60
2019-04-27T22:26:22.493Z,76.80
2019-04-27T22:28:52.340Z,76.70
2019-04-27T22:31:22.242Z,76.70
2019-04-27T22:33:54.542Z,76.70
2019-04-27T22:36:23.665Z,76.60
2019-04-27T22:38:55.082Z,76.90
2019-04-27T22:41:35.438Z,76.80
2019-04-27T22:44:12.840Z,76.80
2019-04-27T22:46:47.036Z,76.30
2019-04-27T22:49:17.114Z,76.20
2019-04-27T22:51:46.921Z,76.30
2019-04-27T22:54:17.540Z,76.40
2019-04-27T22:56:50.830Z,76.50
2019-04-27T22:59:22.906Z,76.40
2019-04-27T23:02:10.980Z,76.40
2019-04-27T23:04:45.465Z,76.60
2019-04-27T23:07:15.282Z,76.60
2019-04-27T23:09:45.084Z,76.50
2019-04-27T23:12:15.059Z,76.00
2019-04-27T23:14:45.035Z,76.10
2019-04-27T23:17:16.498Z,76.30
2019-04-27T23:19:47.279Z,76.10
2019-04-27T23:22:17.181Z,75.80
2019-04-27T23:24:47.335Z,75.40
2019-04-27T23:27:17.210Z,75.60
2019-04-27T23:29:47.841Z,75.40
2019-04-27T23:32:21.078Z,75.70
2019-04-27T23:34:53.001Z,75.50
2019-04-27T23:37:22.849Z,75.40
2019-04-27T23:39:52.761Z,75.50
2019-04-27T23:42:22.586Z,75.40
2019-04-27T23:44:52.397Z,75.70
2019-04-27T23:47:22.165Z,75.70
2019-04-27T23:49:51.943Z,75.70
2019-04-27T23:52:23.386Z,75.70
2019-04-27T23:54:53.321Z,75.80
2019-04-27T23:57:24.066Z,75.90
2019-04-27T23:59:53.890Z,76.10
